createdAt,value
2016-03-24T00:00:08.294Z,1013.05
2016-03-24T00:00:55.578Z,1013.05
2016-03-24T00:01:55.581Z,1013.03
2016-03-24T00:02:55.599Z,1013.04
2016-03-24T00:03:55.602Z,1013.04
2016-03-24T00:04:56.214Z,1013.06
2016-03-24T00:05:55.624Z,1013.08
2016-03-24T00:07:08.376Z,1013.09
2016-03-24T00:07:55.660Z,1013.04
2016-03-24T00:09:14.869Z,1013.06
2016-03-24T00:09:55.681Z,1013.09
2016-03-24T00:10:55.683Z,1013.04
2016-03-24T00:11:55.702Z,1013.05
2016-03-24T00:12:55.720Z,1013.05
2016-03-24T00:14:08.457Z,1013.1
2016-03-24T00:14:55.741Z,1013.13
2016-03-24T00:15:55.744Z,1013.1
2016-03-24T00:16:56.356Z,1013.17
2016-03-24T00:18:08.546Z,1013.13
2016-03-24T00:18:55.784Z,1013.19
2016-03-24T00:20:21.476Z,1013.14
2016-03-24T00:20:55.804Z,1013.14
2016-03-24T00:21:55.822Z,1013.08
2016-03-24T00:22:55.826Z,1013.07
2016-03-24T00:23:55.828Z,1013.03
2016-03-24T00:24:55.846Z,1013.03
2016-03-24T00:26:08.598Z,1013.03
2016-03-24T00:26:55.883Z,1013.05
2016-03-24T00:27:55.886Z,1013.12
2016-03-24T00:28:55.904Z,1013.1
2016-03-24T00:29:55.922Z,1013.11
2016-03-24T00:30:55.925Z,1013.1
2016-03-24T00:31:55.928Z,1013.12
2016-03-24T00:33:08.743Z,1013.07
2016-03-24T00:33:55.949Z,1013.1
2016-03-24T00:34:55.966Z,1013.06
2016-03-24T00:35:56.000Z,1013.07
2016-03-24T00:37:02.253Z,1013.08
2016-03-24T00:37:56.006Z,1013.07
2016-03-24T00:38:56.008Z,1013.09
2016-03-24T00:39:56.027Z,1013.07
2016-03-24T00:40:56.029Z,1013.06
2016-03-24T00:41:56.049Z,1013.09
2016-03-24T00:42:56.051Z,1013.08
2016-03-24T00:43:56.069Z,1013.1
2016-03-24T00:44:56.071Z,1013.09
2016-03-24T00:45:56.091Z,1013.09
2016-03-24T00:46:56.093Z,1013.14
2016-03-24T00:47:56.112Z,1013.11
2016-03-24T00:48:56.332Z,1013.09
2016-03-24T00:49:56.132Z,1013.1
2016-03-24T00:50:56.151Z,1013.09
2016-03-24T00:51:56.372Z,1013.15
2016-03-24T00:52:56.171Z,1013.09
2016-03-24T00:53:56.173Z,1013.04
2016-03-24T00:54:56.192Z,1013.06
2016-03-24T00:55:56.211Z,1013.04
2016-03-24T00:56:56.417Z,1013
2016-03-24T00:58:02.497Z,1013.01
2016-03-24T00:58:56.234Z,1013.01
2016-03-24T00:59:56.253Z,1013.02
2016-03-24T01:00:56.271Z,1013.01
2016-03-24T01:01:56.274Z,1013
2016-03-24T01:02:56.291Z,1013
2016-03-24T01:04:09.030Z,1013.02
2016-03-24T01:04:56.313Z,1012.99
2016-03-24T01:05:56.331Z,1013.01
2016-03-24T01:06:56.333Z,1013
2016-03-24T01:07:56.336Z,1013.06
2016-03-24T01:08:56.354Z,1013.09
2016-03-24T01:09:56.358Z,1013.11
2016-03-24T01:10:56.391Z,1013.11
2016-03-24T01:11:56.394Z,1013.06
2016-03-24T01:12:56.413Z,1013.06
2016-03-24T01:13:56.416Z,1013.04
2016-03-24T01:14:56.418Z,1013.04
2016-03-24T01:15:56.437Z,1013.02
2016-03-24T01:16:56.454Z,1013
2016-03-24T01:17:56.457Z,1012.97
2016-03-24T01:18:56.459Z,1012.94
2016-03-24T01:19:56.478Z,1012.95
2016-03-24T01:20:56.481Z,1012.98
2016-03-24T01:21:56.530Z,1012.98
2016-03-24T01:22:56.517Z,1013.01
2016-03-24T01:23:56.520Z,1013.02
2016-03-24T01:24:56.539Z,1012.98
2016-03-24T01:25:56.541Z,1012.96
2016-03-24T01:27:15.765Z,1012.98
2016-03-24T01:27:56.562Z,1012.98
2016-03-24T01:28:56.597Z,1012.98
2016-03-24T01:29:56.599Z,1012.98
2016-03-24T01:30:56.602Z,1012.96
2016-03-24T01:31:56.604Z,1012.93
2016-03-24T01:32:56.623Z,1012.91
2016-03-24T01:33:56.641Z,1012.9
2016-03-24T01:34:56.659Z,1012.91
2016-03-24T01:35:56.646Z,1012.87
2016-03-24T01:36:56.664Z,1012.85
2016-03-24T01:37:56.683Z,1012.84
2016-03-24T01:38:56.702Z,1012.84
2016-03-24T01:39:56.704Z,1012.85
2016-03-24T01:40:56.863Z,1012.86
2016-03-24T01:41:56.741Z,1012.85
2016-03-24T01:42:58.149Z,1012.82
2016-03-24T01:43:56.746Z,1012.8
2016-03-24T01:44:56.779Z,1012.8
2016-03-24T01:45:56.767Z,1012.8
2016-03-24T01:46:56.785Z,1012.8
2016-03-24T01:47:56.804Z,1012.78
2016-03-24T01:48:56.806Z,1012.78
2016-03-24T01:49:56.824Z,1012.81
2016-03-24T01:50:56.826Z,1012.78
2016-03-24T01:51:56.846Z,1012.74
2016-03-24T01:52:56.864Z,1012.75
2016-03-24T01:53:57.007Z,1012.72
2016-03-24T01:54:56.870Z,1012.69
2016-03-24T01:55:56.888Z,1012.7
2016-03-24T01:56:56.906Z,1012.7
2016-03-24T01:57:57.018Z,1012.68
2016-03-24T01:58:56.911Z,1012.67
2016-03-24T01:59:56.930Z,1012.7
2016-03-24T02:00:56.948Z,1012.68
2016-03-24T02:01:56.950Z,1012.69
2016-03-24T02:03:09.703Z,1012.7
2016-03-24T02:03:56.971Z,1012.7
2016-03-24T02:04:57.005Z,1012.71
2016-03-24T02:05:56.992Z,1012.71
2016-03-24T02:06:57.011Z,1012.73
2016-03-24T02:07:57.029Z,1012.73
2016-03-24T02:08:57.032Z,1012.73
2016-03-24T02:09:57.050Z,1012.72
2016-03-24T02:10:57.053Z,1012.7
2016-03-24T02:11:57.071Z,1012.7
2016-03-24T02:12:57.074Z,1012.71
2016-03-24T02:13:57.092Z,1012.71
2016-03-24T02:14:57.096Z,1012.73
2016-03-24T02:15:57.113Z,1012.77
2016-03-24T02:16:57.131Z,1012.79
2016-03-24T02:18:09.868Z,1012.81
2016-03-24T02:18:57.137Z,1012.77
2016-03-24T02:19:57.155Z,1012.76
2016-03-24T02:20:57.174Z,1012.74
2016-03-24T02:21:57.176Z,1012.72
2016-03-24T02:22:57.195Z,1012.72
2016-03-24T02:23:57.213Z,1012.71
2016-03-24T02:24:57.216Z,1012.73
2016-03-24T02:25:57.234Z,1012.72
2016-03-24T02:26:57.237Z,1012.7
2016-03-24T02:27:57.255Z,1012.69
2016-03-24T02:28:57.258Z,1012.69
2016-03-24T02:29:57.276Z,1012.67
2016-03-24T02:30:57.294Z,1012.64
2016-03-24T02:31:57.297Z,1012.66
2016-03-24T02:32:57.314Z,1012.63
2016-03-24T02:33:57.317Z,1012.69
2016-03-24T02:34:57.336Z,1012.67
2016-03-24T02:35:57.339Z,1012.74
2016-03-24T02:36:57.357Z,1012.69
2016-03-24T02:37:57.375Z,1012.73
2016-03-24T02:39:16.584Z,1012.72
2016-03-24T02:39:57.397Z,1012.73
2016-03-24T02:40:57.400Z,1012.75
2016-03-24T02:41:57.418Z,1012.77
2016-03-24T02:42:57.436Z,1012.76
2016-03-24T02:43:57.455Z,1012.81
2016-03-24T02:44:57.551Z,1012.78
2016-03-24T02:45:57.475Z,1012.79
2016-03-24T02:46:57.493Z,1012.73
2016-03-24T02:47:57.496Z,1012.79
2016-03-24T02:48:57.499Z,1012.83
2016-03-24T02:49:57.533Z,1012.8
2016-03-24T02:50:57.535Z,1012.84
2016-03-24T02:51:57.538Z,1012.87
2016-03-24T02:52:57.557Z,1012.78
2016-03-24T02:54:10.310Z,1012.79
2016-03-24T02:54:57.593Z,1012.83
2016-03-24T02:55:57.596Z,1012.77
2016-03-24T02:56:57.614Z,1012.8
2016-03-24T02:57:57.617Z,1012.8
2016-03-24T02:58:57.635Z,1012.83
2016-03-24T02:59:57.653Z,1012.79
2016-03-24T03:00:57.656Z,1012.75
2016-03-24T03:01:57.674Z,1012.79
2016-03-24T03:02:57.677Z,1012.75
2016-03-24T03:03:57.711Z,1012.73
2016-03-24T03:04:57.714Z,1012.78
2016-03-24T03:05:57.732Z,1012.78
2016-03-24T03:06:57.736Z,1012.78
2016-03-24T03:07:57.753Z,1012.78
2016-03-24T03:08:57.756Z,1012.79
2016-03-24T03:09:57.774Z,1012.78
2016-03-24T03:10:57.792Z,1012.8
2016-03-24T03:11:57.810Z,1012.87
2016-03-24T03:12:57.814Z,1012.79
2016-03-24T03:13:57.832Z,1012.84
2016-03-24T03:15:10.585Z,1012.86
2016-03-24T03:16:04.118Z,1012.81
2016-03-24T03:16:57.871Z,1012.84
2016-03-24T03:17:57.889Z,1012.83
2016-03-24T03:18:57.893Z,1012.88
2016-03-24T03:19:57.910Z,1012.93
2016-03-24T03:20:57.929Z,1012.94
2016-03-24T03:21:57.932Z,1012.95
2016-03-24T03:22:57.966Z,1012.98
2016-03-24T03:23:57.968Z,1012.95
2016-03-24T03:24:57.971Z,1012.97
2016-03-24T03:25:57.989Z,1012.94
2016-03-24T03:26:58.007Z,1012.93
2016-03-24T03:27:58.026Z,1012.92
2016-03-24T03:28:58.029Z,1012.9
2016-03-24T03:29:58.047Z,1012.91
2016-03-24T03:30:58.050Z,1012.93
2016-03-24T03:31:58.052Z,1012.94
2016-03-24T03:32:58.070Z,1012.96
2016-03-24T03:33:58.089Z,1012.93
2016-03-24T03:34:58.107Z,1012.95
2016-03-24T03:35:58.126Z,1012.95
2016-03-24T03:36:58.128Z,1012.93
2016-03-24T03:37:58.147Z,1012.94
2016-03-24T03:39:10.883Z,1012.95
2016-03-24T03:39:58.183Z,1013
2016-03-24T03:40:58.201Z,1012.97
2016-03-24T03:41:58.205Z,1012.98
2016-03-24T03:42:58.816Z,1012.95
2016-03-24T03:43:58.225Z,1012.96
2016-03-24T03:44:58.243Z,1012.95
2016-03-24T03:45:58.246Z,1012.95
2016-03-24T03:47:10.998Z,1012.98
2016-03-24T03:47:58.282Z,1012.96
2016-03-24T03:48:58.379Z,1012.97
2016-03-24T03:49:58.319Z,1013.01
2016-03-24T03:50:58.321Z,1013.05
2016-03-24T03:51:58.325Z,1013.07
2016-03-24T03:52:58.343Z,1013.07
2016-03-24T03:53:58.362Z,1013.09
2016-03-24T03:54:58.364Z,1013.07
2016-03-24T03:56:11.132Z,1013.06
2016-03-24T03:56:58.400Z,1013.08
2016-03-24T03:57:58.419Z,1013.03
2016-03-24T03:58:58.421Z,1013.05
2016-03-24T03:59:58.440Z,1013.03
2016-03-24T04:00:58.458Z,1013.04
2016-03-24T04:01:59.070Z,1013.01
2016-03-24T04:02:58.479Z,1013.06
2016-03-24T04:03:58.498Z,1013.06
2016-03-24T04:04:59.109Z,1013.08
2016-03-24T04:05:59.128Z,1013.1
2016-03-24T04:06:58.526Z,1013.06
2016-03-24T04:07:58.544Z,1013.07
2016-03-24T04:08:58.563Z,1013.06
2016-03-24T04:09:58.580Z,1013.08
2016-03-24T04:10:58.583Z,1013.06
2016-03-24T04:11:58.601Z,1013.04
2016-03-24T04:12:58.621Z,1013.05
2016-03-24T04:13:58.623Z,1013.08
2016-03-24T04:14:58.641Z,1013.06
2016-03-24T04:15:58.674Z,1013.05
2016-03-24T04:16:58.678Z,1013.03
2016-03-24T04:17:58.680Z,1013.08
2016-03-24T04:18:58.699Z,1013.02
2016-03-24T04:20:04.982Z,1013.05
2016-03-24T04:21:17.926Z,1013.03
2016-03-24T04:21:58.738Z,1013.01
2016-03-24T04:22:58.757Z,1012.98
2016-03-24T04:24:08.321Z,1012.95
2016-03-24T04:25:08.340Z,1012.97
2016-03-24T04:26:08.343Z,1013
2016-03-24T04:27:08.361Z,1013.07
2016-03-24T04:28:08.379Z,1013.06
2016-03-24T04:29:08.398Z,1013.08
2016-03-24T04:30:08.400Z,1013.04
2016-03-24T04:31:21.156Z,1013.06
2016-03-24T04:32:08.422Z,1013.03
2016-03-24T04:33:08.455Z,1013.06
2016-03-24T04:34:21.194Z,1013.07
2016-03-24T04:35:08.475Z,1013.13
2016-03-24T04:36:08.478Z,1013.11
2016-03-24T04:37:08.497Z,1013.14
2016-03-24T04:38:08.516Z,1013.16
2016-03-24T04:39:08.518Z,1013.16
2016-03-24T04:40:08.536Z,1013.16
2016-03-24T04:41:08.554Z,1013.15
2016-03-24T04:42:08.573Z,1013.1
2016-03-24T04:43:08.576Z,1013.12
2016-03-24T04:44:08.594Z,1013.12
2016-03-24T04:45:08.596Z,1013.16
2016-03-24T04:46:08.615Z,1013.17
2016-03-24T04:47:08.633Z,1013.11
2016-03-24T04:48:08.652Z,1013.16
2016-03-24T04:49:08.717Z,1013.14
2016-03-24T04:50:08.673Z,1013.11
2016-03-24T04:51:08.690Z,1013.14
2016-03-24T04:52:08.710Z,1013.14
2016-03-24T04:53:08.712Z,1013.1
2016-03-24T04:54:08.731Z,1013.1
2016-03-24T04:55:21.486Z,1013.1
2016-03-24T04:57:08.769Z,1013.1
2016-03-24T04:58:08.788Z,1013.08
2016-03-24T04:59:08.806Z,1013.07
2016-03-24T05:00:08.809Z,1013.05
2016-03-24T05:01:08.827Z,1013.04
2016-03-24T05:02:08.831Z,1013.04
2016-03-24T05:03:08.848Z,1013.03
2016-03-24T05:04:08.883Z,1013.05
2016-03-24T05:05:08.869Z,1012.99
2016-03-24T05:06:08.888Z,1012.99
2016-03-24T05:07:21.644Z,1012.97
2016-03-24T05:08:08.925Z,1012.96
2016-03-24T05:09:28.133Z,1012.92
2016-03-24T05:10:21.682Z,1012.93
2016-03-24T05:11:08.963Z,1012.99
2016-03-24T05:12:08.966Z,1012.97
2016-03-24T05:13:08.985Z,1013.01
2016-03-24T05:14:08.987Z,1012.98
2016-03-24T05:15:09.021Z,1012.95
2016-03-24T05:16:09.024Z,1012.94
2016-03-24T05:17:09.043Z,1012.91
2016-03-24T05:18:09.045Z,1012.89
2016-03-24T05:19:09.126Z,1012.91
2016-03-24T05:20:09.082Z,1012.86
2016-03-24T05:21:09.084Z,1012.87
2016-03-24T05:22:09.102Z,1012.88
2016-03-24T05:23:21.857Z,1012.92
2016-03-24T05:24:09.123Z,1012.9
2016-03-24T05:25:09.142Z,1012.96
2016-03-24T05:26:09.159Z,1012.9
2016-03-24T05:27:09.162Z,1012.9
2016-03-24T05:28:15.447Z,1012.93
2016-03-24T05:29:09.184Z,1012.97
2016-03-24T05:30:09.202Z,1012.98
2016-03-24T05:31:21.958Z,1013.04
2016-03-24T05:32:09.223Z,1013.05
2016-03-24T05:33:09.242Z,1013.04
2016-03-24T05:34:21.981Z,1013.04
2016-03-24T05:35:09.278Z,1013.1
2016-03-24T05:36:09.296Z,1013.12
2016-03-24T05:37:22.036Z,1013.13
2016-03-24T05:38:09.411Z,1013.15
2016-03-24T05:39:09.320Z,1013.2
2016-03-24T05:40:09.338Z,1013.18
2016-03-24T05:41:09.357Z,1013.18
2016-03-24T05:42:15.624Z,1013.18
2016-03-24T05:43:09.378Z,1013.19
2016-03-24T05:44:09.380Z,1013.2
2016-03-24T05:45:09.399Z,1013.2
2016-03-24T05:46:09.417Z,1013.21
2016-03-24T05:47:09.420Z,1013.24
2016-03-24T05:48:15.688Z,1013.28
2016-03-24T05:49:09.441Z,1013.33
2016-03-24T05:50:09.459Z,1013.28
2016-03-24T05:51:35.152Z,1013.32
2016-03-24T05:52:19.030Z,1013.31
2016-03-24T05:53:19.017Z,1013.33
2016-03-24T05:54:19.035Z,1013.38
2016-03-24T05:55:19.053Z,1013.37
2016-03-24T05:56:19.056Z,1013.36
2016-03-24T05:57:19.090Z,1013.4
2016-03-24T05:58:19.093Z,1013.38
2016-03-24T05:59:19.111Z,1013.4
2016-03-24T06:00:19.114Z,1013.41
2016-03-24T06:01:19.117Z,1013.47
2016-03-24T06:02:19.150Z,1013.49
2016-03-24T06:03:19.153Z,1013.53
2016-03-24T06:04:19.171Z,1013.56
2016-03-24T06:05:19.174Z,1013.55
2016-03-24T06:06:19.192Z,1013.53
2016-03-24T06:07:19.195Z,1013.55
2016-03-24T06:08:38.433Z,1013.58
2016-03-24T06:09:19.231Z,1013.62
2016-03-24T06:10:19.249Z,1013.6
2016-03-24T06:11:19.252Z,1013.58
2016-03-24T06:12:19.271Z,1013.64
2016-03-24T06:13:35.914Z,1013.62
2016-03-24T06:14:23.182Z,1013.66
2016-03-24T06:15:48.872Z,1013.64
2016-03-24T06:16:23.266Z,1013.63
2016-03-24T06:17:23.222Z,1013.6
2016-03-24T06:18:23.240Z,1013.68
2016-03-24T06:19:29.508Z,1013.66
2016-03-24T06:20:23.260Z,1013.66
2016-03-24T06:21:23.279Z,1013.69
2016-03-24T06:22:23.298Z,1013.71
2016-03-24T06:23:23.316Z,1013.71
2016-03-24T06:24:23.334Z,1013.71
2016-03-24T06:25:23.337Z,1013.74
2016-03-24T06:26:23.355Z,1013.78
2016-03-24T06:27:23.374Z,1013.79
2016-03-24T06:28:23.392Z,1013.78
2016-03-24T06:29:23.473Z,1013.81
2016-03-24T06:30:23.412Z,1013.83
2016-03-24T06:31:23.432Z,1013.86
2016-03-24T06:32:29.715Z,1013.89
2016-03-24T06:33:29.734Z,1013.93
2016-03-24T06:34:23.486Z,1013.95
2016-03-24T06:35:23.505Z,1013.98
2016-03-24T06:36:29.773Z,1013.99
2016-03-24T06:37:23.526Z,1014.04
2016-03-24T06:38:23.544Z,1014.04
2016-03-24T06:39:23.547Z,1014.01
2016-03-24T06:40:24.986Z,1014.02
2016-03-24T06:41:23.583Z,1014
2016-03-24T06:42:23.602Z,1013.98
2016-03-24T06:43:23.620Z,1013.97
2016-03-24T06:44:36.419Z,1014.02
2016-03-24T06:45:23.641Z,1014.02
2016-03-24T06:46:42.863Z,1014.01
2016-03-24T06:47:23.678Z,1014.01
2016-03-24T06:48:23.696Z,1014
2016-03-24T06:49:24.307Z,1013.99
2016-03-24T06:50:23.716Z,1014
2016-03-24T06:51:23.751Z,1013.93
2016-03-24T06:52:23.769Z,1013.94
2016-03-24T06:53:36.521Z,1013.98
2016-03-24T06:54:23.790Z,1013.94
2016-03-24T06:55:43.011Z,1013.97
2016-03-24T06:56:24.437Z,1013.97
2016-03-24T06:57:23.845Z,1013.94
2016-03-24T06:58:23.863Z,1013.98
2016-03-24T06:59:23.865Z,1013.94
2016-03-24T07:00:23.901Z,1013.93
2016-03-24T07:01:36.637Z,1013.97
2016-03-24T07:02:23.921Z,1013.96
2016-03-24T07:03:43.142Z,1013.96
2016-03-24T07:04:36.692Z,1013.97
2016-03-24T07:05:23.976Z,1013.99
2016-03-24T07:06:23.995Z,1013.99
2016-03-24T07:07:49.669Z,1014.04
2016-03-24T07:08:24.625Z,1014.01
2016-03-24T07:10:39.225Z,1014.05
2016-03-24T07:11:39.242Z,1014.01
2016-03-24T07:12:39.260Z,1014.04
2016-03-24T07:13:39.278Z,1014.08
2016-03-24T07:14:52.031Z,1014.07
2016-03-24T07:15:39.300Z,1014.09
2016-03-24T07:16:39.349Z,1014.11
2016-03-24T07:17:39.352Z,1014.13
2016-03-24T07:18:39.354Z,1014.13
2016-03-24T07:19:39.374Z,1014.11
2016-03-24T07:20:39.407Z,1014.03
2016-03-24T07:21:39.424Z,1014.08
2016-03-24T07:22:45.710Z,1014.09
2016-03-24T07:23:39.462Z,1014.12
2016-03-24T07:24:39.480Z,1014.14
2016-03-24T07:25:39.499Z,1014.17
2016-03-24T07:26:39.517Z,1014.18
2016-03-24T07:27:39.535Z,1014.18
2016-03-24T07:28:39.554Z,1014.17
2016-03-24T07:29:39.572Z,1014.18
2016-03-24T07:30:39.606Z,1014.16
2016-03-24T07:31:39.608Z,1014.16
2016-03-24T07:32:39.627Z,1014.13
2016-03-24T07:33:39.661Z,1014.09
2016-03-24T07:34:39.679Z,1014.14
2016-03-24T07:35:52.432Z,1014.17
2016-03-24T07:36:39.715Z,1014.15
2016-03-24T07:37:39.750Z,1014.16
2016-03-24T07:38:40.361Z,1014.14
2016-03-24T07:39:39.786Z,1014.12
2016-03-24T07:40:52.539Z,1014.19
2016-03-24T07:41:39.822Z,1014.2
2016-03-24T07:42:39.841Z,1014.14
2016-03-24T07:43:39.875Z,1014.21
2016-03-24T07:44:39.878Z,1014.13
2016-03-24T07:45:39.911Z,1014.09
2016-03-24T07:46:40.539Z,1014.1
2016-03-24T07:47:39.948Z,1014.1
2016-03-24T07:48:39.967Z,1014.07
2016-03-24T07:49:39.985Z,1014.12
2016-03-24T07:50:40.002Z,1014.12
2016-03-24T07:51:40.631Z,1014.13
2016-03-24T07:52:40.055Z,1014.07
2016-03-24T07:53:40.074Z,1014.1
2016-03-24T07:54:40.093Z,1014
2016-03-24T07:55:40.110Z,1014.04
2016-03-24T07:56:40.129Z,1014.07
2016-03-24T07:57:40.147Z,1014.11
2016-03-24T07:58:40.775Z,1014.1
2016-03-24T07:59:40.184Z,1014.1
2016-03-24T08:00:40.201Z,1014.08
2016-03-24T08:01:40.237Z,1014.09
2016-03-24T08:02:40.254Z,1014.1
2016-03-24T08:03:40.273Z,1014.07
2016-03-24T08:04:40.291Z,1014.08
2016-03-24T08:05:40.309Z,1014.07
2016-03-24T08:06:40.325Z,1014.03
2016-03-24T08:07:40.340Z,1014.04
2016-03-24T08:08:59.561Z,1014.05
2016-03-24T08:09:40.377Z,1014.08
2016-03-24T08:11:55.600Z,1014.15
2016-03-24T08:12:55.603Z,1014.15
2016-03-24T08:13:55.621Z,1014.19
2016-03-24T08:14:55.655Z,1014.2
2016-03-24T08:15:55.721Z,1014.22
2016-03-24T08:16:55.677Z,1014.25
2016-03-24T08:17:55.695Z,1014.23
2016-03-24T08:18:55.713Z,1014.23
2016-03-24T08:19:55.747Z,1014.22
2016-03-24T08:20:55.750Z,1014.24
2016-03-24T08:21:55.784Z,1014.25
2016-03-24T08:22:55.801Z,1014.23
2016-03-24T08:23:57.227Z,1014.24
2016-03-24T08:24:55.839Z,1014.24
2016-03-24T08:25:55.842Z,1014.23
2016-03-24T08:27:08.595Z,1014.22
2016-03-24T08:28:08.612Z,1014.17
2016-03-24T08:28:55.896Z,1014.17
2016-03-24T08:29:55.915Z,1014.14
2016-03-24T08:30:55.948Z,1014.11
2016-03-24T08:31:55.951Z,1014.13
2016-03-24T08:32:55.954Z,1014.14
2016-03-24T08:33:55.988Z,1014.17
2016-03-24T08:34:55.995Z,1014.13
2016-03-24T08:35:55.982Z,1014.12
2016-03-24T08:36:55.999Z,1014.12
2016-03-24T08:37:56.003Z,1014.11
2016-03-24T08:39:08.739Z,1014.1
2016-03-24T08:39:56.014Z,1014.09
2016-03-24T08:40:56.028Z,1014.06
2016-03-24T08:41:56.040Z,1014.02
2016-03-24T08:42:56.038Z,1014.03
2016-03-24T08:44:08.784Z,1014.04
2016-03-24T08:44:56.065Z,1014.1
2016-03-24T08:46:21.768Z,1014.15
2016-03-24T08:46:56.097Z,1014.15
2016-03-24T08:47:56.115Z,1014.14
2016-03-24T08:48:56.130Z,1014.13
2016-03-24T08:49:56.164Z,1014.16
2016-03-24T08:50:56.165Z,1014.17
2016-03-24T08:51:56.183Z,1014.14
2016-03-24T08:52:56.200Z,1014.18
2016-03-24T08:53:56.218Z,1014.14
2016-03-24T08:54:56.830Z,1014.13
2016-03-24T08:55:56.254Z,1014.08
2016-03-24T08:56:56.272Z,1014.13
2016-03-24T08:57:56.289Z,1014.14
2016-03-24T08:58:56.308Z,1014.11
2016-03-24T08:59:56.310Z,1014.1
2016-03-24T09:00:56.547Z,1014.11
2016-03-24T09:02:02.628Z,1014.06
2016-03-24T09:02:56.381Z,1014.1
2016-03-24T09:03:56.383Z,1014.04
2016-03-24T09:04:56.417Z,1014.11
2016-03-24T09:05:56.420Z,1014.09
2016-03-24T09:07:09.188Z,1014.08
2016-03-24T09:07:56.472Z,1014.11
2016-03-24T09:08:56.490Z,1014.04
2016-03-24T09:09:56.508Z,1014.06
2016-03-24T09:10:56.511Z,1014.03
2016-03-24T09:11:56.546Z,1014.02
2016-03-24T09:12:56.563Z,1014.05
2016-03-24T09:13:56.582Z,1014.05
2016-03-24T09:14:56.601Z,1014.03
2016-03-24T09:15:56.618Z,1014.06
2016-03-24T09:17:09.356Z,1014.08
2016-03-24T09:17:56.655Z,1014.07
2016-03-24T09:19:22.345Z,1014.09
2016-03-24T09:20:06.223Z,1014.09
2016-03-24T09:21:06.242Z,1014.12
2016-03-24T09:22:06.260Z,1014.09
2016-03-24T09:23:06.278Z,1014.06
2016-03-24T09:24:06.296Z,1014.09
2016-03-24T09:25:06.315Z,1014.13
2016-03-24T09:26:19.067Z,1014.12
2016-03-24T09:27:06.351Z,1014.14
2016-03-24T09:28:06.370Z,1014.14
2016-03-24T09:29:06.389Z,1014.12
2016-03-24T09:30:06.406Z,1014.11
2016-03-24T09:31:06.440Z,1014.1
2016-03-24T09:32:06.442Z,1014.11
2016-03-24T09:33:06.461Z,1014.11
2016-03-24T09:34:06.480Z,1014.1
2016-03-24T09:35:06.497Z,1014.11
2016-03-24T09:36:06.516Z,1014.09
2016-03-24T09:37:06.550Z,1014.1
2016-03-24T09:38:06.569Z,1014.1
2016-03-24T09:39:06.571Z,1014.12
2016-03-24T09:40:06.589Z,1014.13
2016-03-24T09:41:06.608Z,1014.13
2016-03-24T09:42:06.641Z,1014.14
2016-03-24T09:43:06.660Z,1014.15
2016-03-24T09:44:06.663Z,1014.14
2016-03-24T09:45:06.697Z,1014.13
2016-03-24T09:46:06.715Z,1014.13
2016-03-24T09:47:06.733Z,1014.13
2016-03-24T09:48:06.752Z,1014.08
2016-03-24T09:49:06.770Z,1014.13
2016-03-24T09:50:06.788Z,1014.13
2016-03-24T09:51:06.900Z,1014.14
2016-03-24T09:52:08.246Z,1014.17
2016-03-24T09:53:08.265Z,1014.16
2016-03-24T09:54:06.861Z,1014.15
2016-03-24T09:55:06.896Z,1014.16
2016-03-24T09:56:06.914Z,1014.11
2016-03-24T09:57:06.931Z,1014.13
2016-03-24T09:58:06.951Z,1014.08
2016-03-24T09:59:19.703Z,1014.05
2016-03-24T10:00:06.986Z,1014.05
2016-03-24T10:01:07.006Z,1014.07
2016-03-24T10:02:07.023Z,1014.04
2016-03-24T10:03:07.058Z,1014.05
2016-03-24T10:04:07.686Z,1014.03
2016-03-24T10:05:07.094Z,1014.02
2016-03-24T10:06:07.113Z,1014
2016-03-24T10:07:07.131Z,1014
2016-03-24T10:08:07.164Z,1014
2016-03-24T10:09:07.182Z,1014.02
2016-03-24T10:10:07.202Z,1014.02
2016-03-24T10:11:07.235Z,1014.01
2016-03-24T10:12:07.238Z,1014.03
2016-03-24T10:13:07.288Z,1014.04
2016-03-24T10:14:20.025Z,1014.05
2016-03-24T10:15:07.387Z,1014.08
2016-03-24T10:16:07.327Z,1014.09
2016-03-24T10:17:07.345Z,1014.07
2016-03-24T10:18:07.379Z,1014.09
2016-03-24T10:19:07.538Z,1014.09
2016-03-24T10:20:07.479Z,1014.07
2016-03-24T10:21:07.559Z,1014.13
2016-03-24T10:22:20.234Z,1014.11
2016-03-24T10:23:20.268Z,1014.15
2016-03-24T10:24:07.505Z,1014.17
2016-03-24T10:25:07.679Z,1014.11
2016-03-24T10:26:07.556Z,1014.15
2016-03-24T10:27:07.559Z,1014.06
2016-03-24T10:28:07.687Z,1014.11
2016-03-24T10:29:07.596Z,1014.1
2016-03-24T10:30:20.520Z,1014.11
2016-03-24T10:31:07.649Z,1014.11
2016-03-24T10:32:07.729Z,1014.15
2016-03-24T10:33:07.701Z,1014.18
2016-03-24T10:34:07.719Z,1014.22
2016-03-24T10:35:07.737Z,1014.17
2016-03-24T10:36:07.756Z,1014.16
2016-03-24T10:37:07.774Z,1014.23
2016-03-24T10:38:07.807Z,1014.2
2016-03-24T10:39:27.016Z,1014.21
2016-03-24T10:40:14.110Z,1014.23
2016-03-24T10:41:07.863Z,1014.25
2016-03-24T10:42:30.150Z,1014.21
2016-03-24T10:43:30.168Z,1014.17
2016-03-24T10:44:30.185Z,1014.19
2016-03-24T10:45:30.220Z,1014.17
2016-03-24T10:46:30.238Z,1014.21
2016-03-24T10:47:42.990Z,1014.18
2016-03-24T10:48:30.274Z,1014.17
2016-03-24T10:49:49.621Z,1014.19
2016-03-24T10:50:30.327Z,1014.18
2016-03-24T10:51:30.361Z,1014.16
2016-03-24T10:52:30.364Z,1014.18
2016-03-24T10:53:43.132Z,1014.21
2016-03-24T10:54:33.260Z,1014.21
2016-03-24T10:55:58.950Z,1014.22
2016-03-24T10:56:33.312Z,1014.19
2016-03-24T10:58:33.364Z,1014.15
2016-03-24T10:59:33.383Z,1014.16
2016-03-24T11:00:42.978Z,1014.17
2016-03-24T11:01:42.998Z,1014.14
2016-03-24T11:02:55.798Z,1014.16
2016-03-24T11:03:43.034Z,1014.13
2016-03-24T11:04:43.053Z,1014.15
2016-03-24T11:05:43.086Z,1014.21
2016-03-24T11:07:02.308Z,1014.18
2016-03-24T11:07:55.873Z,1014.18
2016-03-24T11:08:43.157Z,1014.24
2016-03-24T11:09:43.174Z,1014.21
2016-03-24T11:10:43.193Z,1014.18
2016-03-24T11:11:43.211Z,1014.13
2016-03-24T11:12:43.246Z,1014.11
2016-03-24T11:13:43.264Z,1014.13
2016-03-24T11:14:43.298Z,1014.24
2016-03-24T11:15:43.316Z,1014.19
2016-03-24T11:16:43.334Z,1014.16
2016-03-24T11:17:43.353Z,1014.13
2016-03-24T11:18:43.371Z,1014.06
2016-03-24T11:19:43.390Z,1014.08
2016-03-24T11:20:43.407Z,1014.14
2016-03-24T11:21:56.176Z,1014.1
2016-03-24T11:22:43.460Z,1014.11
2016-03-24T11:23:43.478Z,1014.12
2016-03-24T11:24:43.497Z,1014.11
2016-03-24T11:26:09.203Z,1014.1
2016-03-24T11:26:53.126Z,1014.12
2016-03-24T11:27:53.162Z,1014.13
2016-03-24T11:28:53.179Z,1014.12
2016-03-24T11:29:53.181Z,1014.12
2016-03-24T11:30:53.310Z,1014.12
2016-03-24T11:31:53.234Z,1014.14
2016-03-24T11:32:53.300Z,1014.13
2016-03-24T11:33:53.271Z,1014.09
2016-03-24T11:34:53.305Z,1014.13
2016-03-24T11:35:53.308Z,1014.08
2016-03-24T11:36:53.325Z,1014.11
2016-03-24T11:37:53.360Z,1014.11
2016-03-24T11:38:53.378Z,1014.14
2016-03-24T11:39:53.412Z,1014.13
2016-03-24T11:41:12.633Z,1014.13
2016-03-24T11:42:06.183Z,1014.13
2016-03-24T11:42:53.467Z,1014.09
2016-03-24T11:43:53.579Z,1014.11
2016-03-24T11:44:53.504Z,1014.08
2016-03-24T11:45:53.538Z,1014.06
2016-03-24T11:47:03.102Z,1014.03
2016-03-24T11:48:03.122Z,1014.04
2016-03-24T11:49:09.436Z,1014.08
2016-03-24T11:50:04.595Z,1014.09
2016-03-24T11:51:03.191Z,1014.12
2016-03-24T11:52:03.209Z,1014.06
2016-03-24T11:53:03.228Z,1014.03
2016-03-24T11:54:09.528Z,1014.04
2016-03-24T11:55:03.281Z,1014.06
2016-03-24T11:56:03.299Z,1014.06
2016-03-24T11:57:03.317Z,1014.03
2016-03-24T11:58:03.945Z,1014.05
2016-03-24T11:59:03.385Z,1014.09
2016-03-24T12:00:03.387Z,1014.05
2016-03-24T12:01:03.406Z,1014.06
2016-03-24T12:02:03.440Z,1014.06
2016-03-24T12:03:03.459Z,1014.06
2016-03-24T12:04:03.476Z,1014.04
2016-03-24T12:05:03.511Z,1014.07
2016-03-24T12:06:03.513Z,1014.08
2016-03-24T12:07:03.547Z,1014.07
2016-03-24T12:08:03.566Z,1014.05
2016-03-24T12:09:03.583Z,1014.01
2016-03-24T12:10:03.603Z,1014.02
2016-03-24T12:11:03.620Z,1014.01
2016-03-24T12:12:03.747Z,1014.05
2016-03-24T12:13:03.672Z,1014.06
2016-03-24T12:14:03.738Z,1014.07